aviador You're here:

KMKO Decoded Metar

MUSKOGEE in OK, USA
Report Time2017-05-23 19:53:00
UTC Time2017-05-23 20:27:10
Flight Rules vfr VFR
Wind340° at 15 kt
W.Decomp.*RWY 31: 13.7 kt HW 6.1 kt RCW
RWY 36: 13.5 kt HW 6.6 kt LCW
RWY 04: 6.1 kt HW 13.7 kt LCW
W.Rank340° ranks 10
Current wind is above 340° avg. (8.5)
Visibility9999 m
Phenomena:N/A
Clouds:Broken 090 Hf
Expected CloudBase > 2,400 ft AGL from Temp-Dew spread
Ceiling9,000 ft
Temp18°C (ISA +4)
Dew Point12°C (68% RH)
AAT13.2°C
QNH1012 hPa
Density Alt1,325 ft
Elevation607 ft
Report Wrong Elevation
Raw Report
KMKO 231953Z AUTO 34015KT 10SM BKN090 18/12 A2987 RMK AO2 RAB08E28
SLP111 P0000 T01830122=

Extra information for KMKO:More info

Metar Taf Metar & Taf Last 4 Metars F.Rules Stats Wind Profile Meteogram Temp Stats Airport Information Weather charts Add Link Nearby VenuesMetar ALERT Operation Metar Decoded Social comments

AIRNAV info for KMKO